Time;durP1;ratioP1;P1;durP2;ratioP2;P2;SDS_P1;SDS_P2;PMS_P1;PMS_P2;Temp;Humidity;BMP_temperature;BMP_pressure;BME280_temperature;BME280_humidity;BME280_pressure;Samples;Min_cycle;Max_cycle;Signal;HPM_P1;HPM_P2
2022/05/20 00:01:15;;;;;;;41.22;37.55;;;;;;;8.84;100.00;102072.94;5012268;28;20057;-80
2022/05/20 00:03:45;;;;;;;44.03;40.22;;;;;;;9.00;100.00;102075.63;5018837;28;20115;-79
2022/05/20 00:06:15;;;;;;;46.20;42.50;;;;;;;9.10;100.00;102076.28;5019315;28;20046;-79
2022/05/20 00:08:45;;;;;;;47.38;42.88;;;;;;;9.04;100.00;102076.13;5019011;28;20115;-79
2022/05/20 00:11:21;;;;;;;44.13;40.47;;;;;;;8.99;100.00;102071.31;5016439;28;20049;-79
2022/05/20 00:13:48;;;;;;;39.85;36.63;;;;;;;8.94;100.00;102071.81;5014032;28;20541;-78
2022/05/20 00:16:20;;;;;;;38.55;35.53;;;;;;;9.04;100.00;102071.66;5024125;28;20057;-78
2022/05/20 00:18:49;;;;;;;37.22;34.22;;;;;;;8.76;100.00;102067.63;5021399;28;20050;-78
2022/05/20 00:21:19;;;;;;;37.00;34.10;;;;;;;9.05;100.00;102072.50;5018171;28;20057;-81
2022/05/20 00:23:53;;;;;;;36.40;33.70;;;;;;;8.81;100.00;102060.03;5025386;28;20046;-78
2022/05/20 00:26:31;;;;;;;36.92;34.05;;;;;;;8.70;100.00;102059.31;5018212;28;20115;-78
2022/05/20 00:28:58;;;;;;;35.90;33.03;;;;;;;9.05;100.00;102065.38;5019035;28;20058;-79
2022/05/20 00:31:28;;;;;;;34.47;31.88;;;;;;;8.88;100.00;102061.03;5017324;28;20474;-79
2022/05/20 00:33:58;;;;;;;50.90;47.35;;;;;;;8.88;100.00;102069.78;5017029;28;20061;-79
2022/05/20 00:36:34;;;;;;;40.30;37.45;;;;;;;8.89;100.00;102070.63;5018171;28;20042;-79
2022/05/20 00:39:03;;;;;;;42.63;39.53;;;;;;;8.78;100.00;102069.13;5022760;28;20089;-79
2022/05/20 00:41:35;;;;;;;41.05;38.20;;;;;;;8.88;100.00;102069.78;5021617;28;20057;-79
2022/05/20 00:44:07;;;;;;;41.67;38.80;;;;;;;8.58;100.00;102065.06;5026304;28;20084;-79
2022/05/20 00:46:37;;;;;;;48.72;45.28;;;;;;;8.84;100.00;102065.81;5016337;28;20042;-78
2022/05/20 00:49:13;;;;;;;41.88;38.88;;;;;;;8.80;100.00;102076.88;5021185;28;20054;-77
2022/05/20 00:51:53;;;;;;;40.75;37.85;;;;;;;8.66;100.00;102076.53;5027373;28;20067;-78
2022/05/20 00:54:34;;;;;;;47.15;43.65;;;;;;;8.49;100.00;102070.31;5019819;28;20478;-79
2022/05/20 00:57:09;;;;;;;40.07;37.20;;;;;;;8.37;100.00;102078.69;5014001;28;20105;-80
2022/05/20 00:59:55;;;;;;;41.03;38.03;;;;;;;8.48;100.00;102076.63;5018777;28;20042;-80
2022/05/20 01:02:28;;;;;;;33.83;31.23;;;;;;;8.73;100.00;102073.25;5018015;28;20057;-79
2022/05/20 01:05:04;;;;;;;32.00;29.35;;;;;;;8.42;100.00;102068.50;5021106;28;20049;-78
2022/05/20 01:07:43;;;;;;;32.08;29.63;;;;;;;8.53;100.00;102070.81;5025562;28;20466;-79
2022/05/20 01:10:12;;;;;;;32.72;30.17;;;;;;;8.39;100.00;102074.91;5021311;28;20042;-79
2022/05/20 01:12:44;;;;;;;33.35;30.88;;;;;;;8.12;100.00;102073.25;5014432;28;20291;-79
2022/05/20 01:15:14;;;;;;;33.17;30.55;;;;;;;8.01;100.00;102078.81;5018380;28;20046;-78
2022/05/20 01:17:56;;;;;;;32.88;30.17;;;;;;;8.22;100.00;102081.91;5019765;28;20469;-79
2022/05/20 01:20:41;;;;;;;34.35;31.75;;;;;;;7.97;100.00;102093.34;5016009;28;20049;-79
2022/05/20 01:23:23;;;;;;;30.60;28.23;;;;;;;7.73;100.00;102089.53;5018054;28;20557;-80
2022/05/20 01:26:00;;;;;;;32.65;30.15;;;;;;;8.16;100.00;102090.47;5018940;28;20049;-79
2022/05/20 01:28:55;;;;;;;;;;;;;;;;;;;;;
2022/05/20 01:31:25;;;;;;;32.42;29.65;;;;;;;8.07;100.00;102085.28;5017792;28;20053;-79
2022/05/20 01:33:55;;;;;;;32.60;29.90;;;;;;;8.35;100.00;102089.44;5017983;28;20129;-78
2022/05/20 01:36:25;;;;;;;34.60;32.00;;;;;;;8.26;100.00;102093.03;5019269;28;20081;-79
2022/05/20 01:39:00;;;;;;;35.25;32.28;;;;;;;8.21;100.00;102090.03;5008310;28;20108;-80
2022/05/20 01:41:50;;;;;;;;;;;;;;;;;;;;;
2022/05/20 01:44:38;;;;;;;31.08;28.58;;;;;;;8.30;100.00;102085.59;5017536;28;20061;-79
2022/05/20 01:47:16;;;;;;;32.75;30.17;;;;;;;8.18;100.00;102088.50;5017471;28;20052;-78
2022/05/20 01:50:00;;;;;;;35.55;33.00;;;;;;;8.08;100.00;102092.25;5019625;28;20398;-78
2022/05/20 01:52:38;;;;;;;36.08;33.38;;;;;;;7.81;100.00;102088.78;5025103;28;20136;-78
2022/05/20 01:55:17;;;;;;;32.38;30.08;;;;;;;7.99;100.00;102078.97;5014511;28;20054;-79
2022/05/20 01:58:05;;;;;;;32.17;29.80;;;;;;;7.56;100.00;102085.94;5015396;28;20061;-78
2022/05/20 02:00:35;;;;;;;34.20;31.50;;;;;;;7.70;100.00;102083.72;5118288;23;21110;-79
2022/05/20 02:03:08;;;;;;;41.88;39.08;;;;;;;7.89;100.00;102069.47;4968772;28;20050;-80
2022/05/20 02:05:40;;;;;;;36.80;34.10;;;;;;;7.52;100.00;102079.28;4968311;28;20074;-79
2022/05/20 02:08:12;;;;;;;38.47;35.65;;;;;;;7.43;100.00;102072.25;4968844;28;20047;-79
2022/05/20 02:10:46;;;;;;;41.53;38.33;;;;;;;7.48;100.00;102069.16;4961930;28;20483;-78
2022/05/20 02:13:15;;;;;;;36.20;33.55;;;;;;;7.59;100.00;102068.91;4967911;28;20109;-79
2022/05/20 02:15:48;;;;;;;42.00;39.03;;;;;;;7.61;100.00;102068.78;4967575;28;20058;-78
2022/05/20 02:18:20;;;;;;;44.85;41.28;;;;;;;7.47;100.00;102068.31;4968767;28;20047;-81
2022/05/20 02:20:50;;;;;;;47.45;43.75;;;;;;;7.90;100.00;102069.31;4972405;28;20514;-79
2022/05/20 02:23:20;;;;;;;59.47;54.55;;;;;;;7.89;100.00;102069.47;4976612;28;20057;-79
2022/05/20 02:25:52;;;;;;;49.35;45.45;;;;;;;7.68;100.00;102081.22;4973173;28;20058;-80
2022/05/20 02:28:21;;;;;;;47.60;43.83;;;;;;;7.79;100.00;102080.16;4965157;28;20502;-78
2022/05/20 02:30:50;;;;;;;44.70;41.05;;;;;;;7.89;100.00;102080.88;4959093;28;20051;-80
2022/05/20 02:33:19;;;;;;;40.72;37.30;;;;;;;8.00;100.00;102077.16;4967309;28;20061;-78
2022/05/20 02:35:47;;;;;;;40.60;37.47;;;;;;;7.61;100.00;102074.88;4965022;28;20042;-80
2022/05/20 02:38:17;;;;;;;41.88;38.22;;;;;;;7.71;100.00;102083.56;4966211;28;20113;-80
2022/05/20 02:40:47;;;;;;;39.45;36.20;;;;;;;7.67;100.00;102084.84;4966742;28;20078;-79
2022/05/20 02:43:16;;;;;;;37.65;34.90;;;;;;;7.29;100.00;102084.22;4970179;28;20479;-81
2022/05/20 02:45:46;;;;;;;34.85;32.30;;;;;;;7.50;100.00;102080.41;4972267;28;20485;-79
2022/05/20 02:48:17;;;;;;;35.53;32.83;;;;;;;7.53;100.00;102086.25;4969092;28;20043;-80
2022/05/20 02:50:44;;;;;;;34.00;30.95;;;;;;;7.85;100.00;102084.81;4961514;28;20134;-81
2022/05/20 02:53:11;;;;;;;34.13;31.73;;;;;;;7.74;100.00;102083.25;4970016;28;20074;-80
2022/05/20 02:55:38;;;;;;;33.35;30.95;;;;;;;7.58;100.00;102081.31;4967980;28;20043;-79
2022/05/20 02:58:07;;;;;;;34.45;32.05;;;;;;;7.86;100.00;102085.66;4973774;28;20055;-79
2022/05/20 03:06:04;;;;;;;34.70;32.38;;;;;;;7.72;100.00;102081.75;4968845;28;20053;-79
2022/05/20 03:08:30;;;;;;;35.10;32.70;;;;;;;7.90;100.00;102087.03;4966305;28;20463;-78
2022/05/20 03:10:57;;;;;;;33.60;31.35;;;;;;;7.96;100.00;102087.22;4969437;28;20110;-79
2022/05/20 03:13:24;;;;;;;40.35;37.65;;;;;;;8.04;100.00;102089.91;4971517;28;20470;-79
2022/05/20 03:15:54;;;;;;;41.92;39.33;;;;;;;7.94;100.00;102098.94;4974626;28;20110;-79
2022/05/20 03:18:21;;;;;;;35.03;32.72;;;;;;;8.22;100.00;102097.78;4976082;28;20049;-80
2022/05/20 03:20:47;;;;;;;37.50;34.67;;;;;;;7.96;100.00;102099.63;4975087;28;20054;-81
2022/05/20 03:23:14;;;;;;;35.92;33.42;;;;;;;8.34;100.00;102098.34;4964018;28;20400;-78
2022/05/20 03:25:41;;;;;;;38.08;35.33;;;;;;;8.27;100.00;102102.63;4970735;28;20117;-78
2022/05/20 03:28:08;;;;;;;33.60;31.20;;;;;;;8.32;100.00;102096.84;4969239;28;20054;-79
2022/05/20 03:30:36;;;;;;;31.05;28.75;;;;;;;8.44;100.00;102101.75;4968002;28;20047;-79
2022/05/20 03:33:04;;;;;;;30.17;28.08;;;;;;;8.73;100.00;102105.03;4972110;28;20428;-79
2022/05/20 03:35:31;;;;;;;29.63;27.45;;;;;;;8.85;100.00;102098.44;4971982;28;20057;-79
2022/05/20 03:37:58;;;;;;;28.77;26.52;;;;;;;8.98;100.00;102098.81;4972239;28;20426;-80
2022/05/20 03:40:28;;;;;;;29.58;27.48;;;;;;;9.01;100.00;102103.78;4962277;28;20062;-82
2022/05/20 03:42:57;;;;;;;30.77;28.58;;;;;;;8.99;100.00;102097.81;4971810;28;20538;-79
2022/05/20 03:45:24;;;;;;;28.58;26.13;;;;;;;9.03;100.00;102091.22;4971283;28;20074;-79
2022/05/20 03:47:51;;;;;;;29.08;27.17;;;;;;;9.25;100.00;102087.09;4972546;28;20515;-79
2022/05/20 03:50:19;;;;;;;28.08;26.15;;;;;;;9.40;100.00;102081.97;4967997;28;20050;-79
2022/05/20 03:52:46;;;;;;;29.25;27.13;;;;;;;9.53;100.00;102084.97;4964350;28;20051;-79
2022/05/20 03:55:14;;;;;;;30.80;28.65;;;;;;;9.59;100.00;102089.63;4964747;28;20051;-80
2022/05/20 03:57:41;;;;;;;32.25;30.20;;;;;;;9.47;100.00;102087.44;4968564;28;20109;-80
2022/05/20 04:00:09;;;;;;;29.58;27.25;;;;;;;9.73;100.00;102092.59;4973896;28;20051;-80
2022/05/20 04:02:34;;;;;;;28.35;26.35;;;;;;;9.76;100.00;102087.78;4967965;28;20058;-81
2022/05/20 04:05:04;;;;;;;29.83;27.90;;;;;;;9.96;100.00;102100.72;4962446;28;20411;-81
2022/05/20 04:07:32;;;;;;;31.05;29.00;;;;;;;10.11;100.00;102104.34;4966581;28;20471;-80
2022/05/20 04:09:59;;;;;;;30.00;27.90;;;;;;;10.43;100.00;102105.25;4972111;28;20054;-81
2022/05/20 04:12:28;;;;;;;29.33;27.33;;;;;;;10.42;100.00;102099.13;4973544;28;20105;-80
2022/05/20 04:14:57;;;;;;;29.30;27.60;;;;;;;10.53;100.00;102105.91;4971835;28;20051;-81
2022/05/20 04:17:24;;;;;;;30.58;28.45;;;;;;;11.00;100.00;102110.34;4970518;28;20050;-82
2022/05/20 04:19:52;;;;;;;28.48;26.88;;;;;;;11.10;100.00;102116.25;4972214;28;20047;-80
2022/05/20 04:22:40;;;;;;;28.73;27.00;;;;;;;11.36;100.00;102115.09;4970377;28;20101;-81
2022/05/20 04:25:22;;;;;;;26.63;25.23;;;;;;;11.44;100.00;102109.75;4971706;28;20057;-79
2022/05/20 04:28:14;;;;;;;25.87;24.20;;;;;;;11.65;100.00;102111.75;4973519;28;20051;-80
2022/05/20 04:30:46;;;;;;;26.80;24.95;;;;;;;11.91;100.00;102108.69;4972907;28;20055;-80
2022/05/20 04:33:22;;;;;;;26.48;24.83;;;;;;;12.00;100.00;102109.44;4971826;28;20139;-81
2022/05/20 04:35:49;;;;;;;27.13;25.10;;;;;;;12.22;100.00;102115.72;4972596;28;20113;-81
2022/05/20 04:38:17;;;;;;;29.73;28.13;;;;;;;12.95;100.00;102104.19;4974653;28;20055;-81
2022/05/20 04:46:56;;;;;;;25.63;24.23;;;;;;;14.98;100.00;102105.28;4972888;28;20062;-80
2022/05/20 04:49:11;;;;;;;27.30;25.55;;;;;;;12.08;100.00;102118.19;4965423;28;20054;-81
2022/05/20 04:51:39;;;;;;;27.85;26.17;;;;;;;12.34;100.00;102122.22;4968712;28;20059;-81
2022/05/20 04:56:58;;;;;;;27.95;26.35;;;;;;;12.44;100.00;102111.34;4971648;28;20110;-84
2022/05/20 04:59:27;;;;;;;27.75;26.10;;;;;;;12.76;100.00;102112.75;4976531;28;20455;-82
2022/05/20 05:01:54;;;;;;;28.58;26.67;;;;;;;12.79;100.00;102112.38;4978271;28;20059;-79
2022/05/20 05:04:22;;;;;;;28.98;26.75;;;;;;;12.92;100.00;102111.69;4981342;28;20047;-81
2022/05/20 05:06:57;;;;;;;28.67;26.67;;;;;;;13.21;100.00;102124.97;4972326;28;20179;-81
2022/05/20 05:09:33;;;;;;;28.23;26.42;;;;;;;13.18;100.00;102116.53;4969457;28;20468;-84
2022/05/20 05:12:06;;;;;;;28.85;26.80;;;;;;;13.50;100.00;102125.91;4972138;28;20070;-83
2022/05/20 05:14:36;;;;;;;;;;;;;;;13.48;100.00;102130.59;4980727;28;20046;-81
2022/05/20 05:17:05;;;;;;;26.23;24.67;;;;;;;13.66;100.00;102114.97;4971348;28;19925;-82
2022/05/20 05:19:37;;;;;;;26.55;24.83;;;;;;;13.66;100.00;102122.97;4979772;28;20458;-82
2022/05/20 05:22:06;;;;;;;28.75;26.40;;;;;;;14.25;100.00;102118.25;4980829;28;20101;-83
2022/05/20 05:24:35;;;;;;;30.25;27.60;;;;;;;14.35;100.00;102116.09;4969099;28;20082;-84
2022/05/20 05:27:04;;;;;;;28.17;26.27;;;;;;;14.63;100.00;102118.72;4972953;28;20046;-83
2022/05/20 05:29:36;;;;;;;28.95;26.80;;;;;;;14.78;100.00;102116.72;4977491;28;20070;-83
2022/05/20 05:32:03;;;;;;;28.98;26.92;;;;;;;14.64;100.00;102115.88;4983875;28;20051;-81
2022/05/20 05:34:30;;;;;;;29.42;27.70;;;;;;;15.28;100.00;102111.09;4980050;28;20051;-79
2022/05/20 05:36:57;;;;;;;30.95;28.75;;;;;;;15.42;100.00;102109.28;4974838;28;20051;-81
2022/05/20 05:39:24;;;;;;;32.72;30.92;;;;;;;15.46;100.00;102113.19;4976967;28;20459;-83
2022/05/20 05:41:50;;;;;;;28.02;26.38;;;;;;;15.92;100.00;102113.25;4978305;28;20483;-79
2022/05/20 05:44:18;;;;;;;28.10;26.48;;;;;;;15.88;100.00;102120.03;4968739;28;20051;-81
2022/05/20 05:46:46;;;;;;;26.98;25.50;;;;;;;15.97;100.00;102117.97;4976729;28;20476;-83
2022/05/20 05:49:14;;;;;;;27.08;25.42;;;;;;;16.16;100.00;102119.00;4976368;28;20463;-80
2022/05/20 05:51:40;;;;;;;25.95;24.65;;;;;;;16.18;100.00;102114.22;4968380;28;20053;-80
2022/05/20 05:54:16;;;;;;;26.73;25.10;;;;;;;16.83;100.00;102111.59;4977716;28;20047;-84
2022/05/20 05:56:44;;;;;;;26.25;24.85;;;;;;;16.56;100.00;102111.66;4971973;28;20047;-81
2022/05/20 05:59:13;;;;;;;27.88;26.48;;;;;;;16.39;100.00;102123.88;4967117;28;20372;-82
2022/05/20 06:01:40;;;;;;;28.83;26.95;;;;;;;16.60;100.00;102117.41;4973023;28;20047;-81
2022/05/20 06:04:09;;;;;;;27.58;25.98;;;;;;;16.53;100.00;102119.31;4967840;28;20039;-82
2022/05/20 06:06:38;;;;;;;28.35;26.65;;;;;;;16.33;100.00;102111.31;4955778;29;20134;-82
2022/05/20 06:09:07;;;;;;;28.00;26.17;;;;;;;16.36;100.00;102111.69;4959507;29;20464;-81
2022/05/20 06:11:35;;;;;;;28.70;26.92;;;;;;;16.42;100.00;102115.41;4954484;28;20054;-80
2022/05/20 06:14:01;;;;;;;28.75;26.85;;;;;;;16.82;100.00;102109.91;4948307;29;20043;-83
2022/05/20 06:16:30;;;;;;;36.97;33.92;;;;;;;16.93;100.00;102109.25;4948673;29;20044;-84
2022/05/20 06:19:11;;;;;;;27.15;25.60;;;;;;;16.83;100.00;102115.09;4957795;28;20539;-83
2022/05/20 06:21:40;;;;;;;27.70;26.20;;;;;;;17.04;100.00;102102.41;4955884;28;20047;-82
2022/05/20 06:24:19;;;;;;;27.98;26.45;;;;;;;17.30;100.00;102104.88;4957292;29;20043;-83
2022/05/20 06:26:47;;;;;;;28.75;27.10;;;;;;;17.14;100.00;102103.56;4955105;29;20052;-80
2022/05/20 06:29:15;;;;;;;29.27;27.77;;;;;;;17.70;100.00;102109.13;4957629;29;20061;-83
2022/05/20 06:31:43;;;;;;;31.83;30.10;;;;;;;17.32;100.00;102102.00;4956400;29;20555;-83
2022/05/20 06:39:48;;;;;;;30.65;29.15;;;;;;;17.40;100.00;102107.13;4957731;29;20083;-83
2022/05/20 06:40:15;;;;;;;30.23;28.73;;;;;;;17.65;100.00;102107.13;4957820;29;20124;-82
2022/05/20 06:42:54;;;;;;;30.38;28.38;;;;;;;18.20;100.00;102107.25;4959636;29;20114;-83
2022/05/20 06:45:24;;;;;;;34.60;32.63;;;;;;;17.85;100.00;102098.91;4954621;29;20455;-83
2022/05/20 06:47:52;;;;;;;29.88;28.48;;;;;;;18.18;100.00;102112.03;4955593;29;20157;-82
2022/05/20 06:50:27;;;;;;;30.08;28.67;;;;;;;18.22;100.00;102113.25;4942427;28;20047;-84
2022/05/20 06:52:54;;;;;;;31.98;30.20;;;;;;;18.11;100.00;102113.97;4956865;28;20527;-83
2022/05/20 06:55:24;;;;;;;28.73;27.23;;;;;;;18.18;100.00;102112.03;4958843;28;20055;-83
2022/05/20 06:57:52;;;;;;;27.55;26.05;;;;;;;18.22;100.00;102115.13;4961706;28;20452;-85
2022/05/20 07:00:20;;;;;;;27.77;26.45;;;;;;;18.17;100.00;102113.06;4962200;28;20095;-86
2022/05/20 07:03:10;;;;;;;27.50;25.88;;;;;;;18.03;100.00;102114.25;4959048;28;20055;-84
2022/05/20 07:05:42;;;;;;;29.60;28.00;;;;;;;18.03;100.00;102115.09;4983409;28;20050;-84
2022/05/20 07:08:09;;;;;;;27.98;26.58;;;;;;;18.40;100.00;102119.69;4972190;28;20557;-84
2022/05/20 07:10:36;;;;;;;29.23;27.73;;;;;;;18.73;100.00;102119.31;4970549;28;20142;-84
2022/05/20 07:13:03;;;;;;;29.20;27.80;;;;;;;18.38;100.00;102117.19;4973476;28;20055;-81
2022/05/20 07:15:31;;;;;;;29.20;27.70;;;;;;;17.59;100.00;102121.44;4974113;28;20082;-83
2022/05/20 07:17:58;;;;;;;27.98;26.38;;;;;;;18.16;100.00;102124.06;4968407;28;20043;-81
2022/05/20 07:20:25;;;;;;;28.17;26.48;;;;;;;18.28;100.00;102120.41;4974124;28;20062;-86
2022/05/20 07:22:53;;;;;;;28.63;27.13;;;;;;;18.41;100.00;102126.69;4974077;28;20058;-82
2022/05/20 07:25:20;;;;;;;29.40;27.70;;;;;;;18.59;100.00;102126.69;4967865;28;20051;-82
2022/05/20 07:27:47;;;;;;;29.15;27.65;;;;;;;18.63;100.00;102125.19;4972947;28;20555;-85
2022/05/20 07:30:17;;;;;;;30.55;28.88;;;;;;;18.96;100.00;102130.19;4973204;28;20046;-84
2022/05/20 07:32:43;;;;;;;30.50;29.00;;;;;;;18.96;100.00;102123.97;4968309;28;20055;-84
2022/05/20 07:35:10;;;;;;;30.25;28.55;;;;;;;18.69;100.00;102126.97;4967413;28;20051;-80
2022/05/20 07:37:37;;;;;;;29.52;28.02;;;;;;;18.82;100.00;102119.81;4963805;28;20070;-83
2022/05/20 07:40:07;;;;;;;30.27;28.48;;;;;;;19.01;100.00;102117.91;4968064;28;20046;-81
2022/05/20 07:42:33;;;;;;;29.42;27.30;;;;;;;19.13;100.00;102113.41;4973814;28;20078;-81
2022/05/20 07:45:01;;;;;;;28.15;26.65;;;;;;;19.00;100.00;102114.38;4972863;28;20050;-81
2022/05/20 07:47:28;;;;;;;29.45;27.65;;;;;;;19.55;100.00;102113.38;4972322;28;20130;-84
2022/05/20 07:49:55;;;;;;;32.63;30.83;;;;;;;19.19;100.00;102121.38;4971791;28;20244;-81
2022/05/20 07:55:07;;;;;;;30.88;29.27;;;;;;;19.53;100.00;102113.59;4966703;28;20047;-80
2022/05/20 07:57:34;;;;;;;30.00;28.50;;;;;;;19.58;100.00;102118.31;4969222;28;20105;-84
2022/05/20 08:00:05;;;;;;;29.90;28.40;;;;;;;19.77;100.00;102124.44;4966541;28;20062;-83
2022/05/20 08:02:32;;;;;;;30.83;29.33;;;;;;;19.72;100.00;102122.44;4972375;28;20495;-83
2022/05/20 08:05:00;;;;;;;30.25;28.55;;;;;;;19.33;100.00;102113.09;4967916;28;20475;-83
2022/05/20 08:07:31;;;;;;;31.70;30.10;;;;;;;19.71;100.00;102123.50;4972831;28;20428;-82
2022/05/20 08:09:58;;;;;;;29.92;28.35;;;;;;;19.75;100.00;102118.47;4969733;28;20138;-80
2022/05/20 08:12:27;;;;;;;30.10;28.33;;;;;;;19.86;100.00;102113.09;4974642;28;20471;-84
2022/05/20 08:14:54;;;;;;;30.25;28.55;;;;;;;19.46;100.00;102118.28;4967535;28;20077;-85
2022/05/20 08:17:24;;;;;;;34.75;33.05;;;;;;;19.41;100.00;102116.28;4964346;28;20061;-83
2022/05/20 08:19:51;;;;;;;34.35;32.50;;;;;;;20.13;100.00;102123.41;4969229;28;20432;-85
2022/05/20 08:22:22;;;;;;;33.85;32.08;;;;;;;19.89;100.00;102114.50;4968384;28;20046;-85
2022/05/20 08:24:52;;;;;;;31.73;30.08;;;;;;;19.52;100.00;102119.25;4972562;28;20055;-82
2022/05/20 08:27:19;;;;;;;29.52;27.73;;;;;;;19.77;100.00;102106.41;4972850;28;20087;-84
2022/05/20 08:29:47;;;;;;;31.77;29.95;;;;;;;19.66;100.00;102109.91;4972318;28;20047;-81
2022/05/20 08:32:15;;;;;;;30.02;28.38;;;;;;;20.59;100.00;102111.72;4965403;28;20464;-83
2022/05/20 08:34:42;;;;;;;32.60;30.65;;;;;;;20.24;100.00;102110.94;4968928;28;20050;-84
2022/05/20 08:37:11;;;;;;;30.50;28.90;;;;;;;20.68;100.00;102104.06;4970646;28;20113;-84
2022/05/20 08:39:37;;;;;;;30.08;28.40;;;;;;;20.72;100.00;102099.81;4971730;28;20470;-83
2022/05/20 08:42:10;;;;;;;32.72;30.67;;;;;;;20.83;100.00;102098.16;4973804;28;20047;-83
2022/05/20 08:44:37;;;;;;;26.20;24.90;;;;;;;20.66;100.00;102094.56;4973234;28;20046;-85
2022/05/20 08:47:15;;;;;;;27.75;26.25;;;;;;;20.90;100.00;102087.19;4976155;28;20062;-82
2022/05/20 08:49:42;;;;;;;29.10;27.40;;;;;;;20.81;100.00;102084.88;4971267;28;20047;-83
2022/05/20 08:52:09;;;;;;;29.02;27.52;;;;;;;20.75;91.35;102085.03;4966790;28;20047;-84
2022/05/20 08:54:36;;;;;;;29.08;27.48;;;;;;;20.89;94.39;102075.59;4974142;28;20050;-83
2022/05/20 08:57:23;;;;;;;29.10;27.50;;;;;;;21.32;99.48;102076.06;4977542;28;20054;-85
2022/05/20 08:59:50;;;;;;;28.95;27.25;;;;;;;20.96;100.00;102078.13;4974615;28;20050;-82
2022/05/20 09:02:20;;;;;;;27.63;26.13;;;;;;;21.06;99.92;102078.34;4966863;28;20409;-85
2022/05/20 09:04:50;;;;;;;28.58;26.98;;;;;;;21.03;100.00;102062.63;4953561;29;20047;-85
2022/05/20 09:07:19;;;;;;;28.92;27.30;;;;;;;20.93;92.33;102068.63;4958666;29;20047;-81
2022/05/20 09:09:51;;;;;;;28.23;26.45;;;;;;;21.07;95.30;102060.25;4948900;29;20142;-84
2022/05/20 09:12:31;;;;;;;28.48;26.45;;;;;;;21.24;86.21;102061.91;4957550;29;20102;-82
2022/05/20 09:17:47;;;;;;;29.98;27.92;;;;;;;21.39;92.15;102044.31;4957719;29;20054;-80
2022/05/20 09:20:20;;;;;;;29.88;27.80;;;;;;;22.03;88.21;102042.00;4959557;29;20047;-84
2022/05/20 09:23:04;;;;;;;30.42;28.73;;;;;;;22.48;77.44;102035.53;4958842;29;20111;-85
2022/05/20 09:25:48;;;;;;;31.17;29.42;;;;;;;21.88;76.41;102036.41;4947549;29;20066;-84
2022/05/20 09:28:23;;;;;;;29.35;27.40;;;;;;;22.41;83.52;102019.47;4954571;29;20051;-82
2022/05/20 09:31:14;;;;;;;29.55;27.85;;;;;;;22.10;80.45;102031.00;4961231;29;20063;-85
2022/05/20 09:33:50;;;;;;;29.60;27.80;;;;;;;21.72;77.77;102030.78;4950129;29;20047;-82
2022/05/20 09:36:33;;;;;;;28.75;27.05;;;;;;;21.71;80.71;102023.72;4951462;29;20472;-82
2022/05/20 09:39:10;;;;;;;29.63;27.63;;;;;;;22.00;67.48;102020.03;4950113;29;20057;-84
2022/05/20 09:41:49;;;;;;;29.98;28.17;;;;;;;22.06;68.99;102019.03;4947376;29;20048;-82
2022/05/20 09:44:19;;;;;;;29.42;27.63;;;;;;;22.64;78.57;102017.56;4954914;29;20043;-82
2022/05/20 09:46:51;;;;;;;28.95;27.35;;;;;;;21.82;79.07;102019.28;4955986;28;20047;-84
2022/05/20 09:49:30;;;;;;;28.88;27.25;;;;;;;21.95;81.04;102018.09;4952134;29;20109;-83
2022/05/20 09:52:01;;;;;;;29.63;27.90;;;;;;;21.75;79.03;102005.09;4959564;29;20495;-80
2022/05/20 09:54:32;;;;;;;29.83;28.13;;;;;;;21.61;80.85;102007.34;4956182;29;20495;-86
2022/05/20 09:57:05;;;;;;;30.75;28.92;;;;;;;22.56;65.80;102001.78;4957272;28;20126;-85
2022/05/20 09:59:39;;;;;;;30.77;29.05;;;;;;;22.88;72.08;102003.72;4952809;28;20124;-83
2022/05/20 10:02:14;;;;;;;31.88;29.63;;;;;;;23.55;61.87;102006.69;4962575;28;20189;-85
2022/05/20 10:04:53;;;;;;;30.48;28.70;;;;;;;22.82;64.75;102005.56;4971929;28;20054;-83
2022/05/20 10:07:36;;;;;;;29.80;27.95;;;;;;;23.06;60.90;101990.63;4971804;28;20061;-81
2022/05/20 10:10:08;;;;;;;;;;;;;;;24.02;64.91;101983.31;4972913;28;20050;-81
2022/05/20 10:12:38;;;;;;;35.63;33.72;;;;;;;23.08;57.33;101991.16;4978225;28;19922;-82
2022/05/20 10:15:13;;;;;;;37.00;34.88;;;;;;;23.18;61.12;101990.44;4967635;28;20051;-81
2022/05/20 10:17:53;;;;;;;30.95;29.23;;;;;;;23.99;57.11;101989.28;4968853;28;20072;-85
2022/05/20 10:20:28;;;;;;;32.05;30.35;;;;;;;23.64;55.01;101982.59;4970139;28;20491;-84
2022/05/20 10:23:05;;;;;;;34.10;32.20;;;;;;;24.05;52.96;101988.22;4973050;28;20062;-85
2022/05/20 10:25:46;;;;;;;35.08;33.28;;;;;;;23.85;54.20;101982.75;4966135;28;20047;-86
2022/05/20 10:34:09;;;;;;;32.88;30.92;;;;;;;23.92;55.25;101973.25;4972136;28;20387;-85
2022/05/20 10:36:52;;;;;;;32.10;30.20;;;;;;;24.23;55.36;101974.16;4970927;28;20050;-86
2022/05/20 10:39:35;;;;;;;31.77;30.05;;;;;;;24.44;56.22;101963.38;4967935;28;20050;-86
2022/05/20 10:42:33;;;;;;;30.95;29.27;;;;;;;23.51;54.36;101962.19;4968152;28;20130;-85
2022/05/20 10:51:17;;;;;;;29.95;28.00;;;;;;;23.49;53.83;101949.97;4968244;28;20070;-85
2022/05/20 10:53:56;;;;;;;31.65;29.85;;;;;;;23.94;46.58;101943.16;4967761;28;20062;-85
2022/05/20 10:56:33;;;;;;;33.22;30.98;;;;;;;23.51;48.65;101940.50;4962931;28;20148;-85
2022/05/20 10:59:27;;;;;;;32.55;30.85;;;;;;;24.14;51.11;101936.97;4968028;28;20047;-82
2022/05/20 11:02:07;;;;;;;32.00;30.30;;;;;;;24.60;46.47;101923.47;4968652;28;20047;-83
2022/05/20 11:05:03;;;;;;;29.73;27.63;;;;;;;24.73;46.84;101914.00;4962562;28;20054;-82
2022/05/20 11:07:54;;;;;;;28.42;26.38;;;;;;;24.18;49.09;101919.88;4966442;28;20058;-82
2022/05/20 11:10:40;;;;;;;28.83;27.05;;;;;;;23.16;53.51;101914.00;4971409;28;20373;-86
2022/05/20 11:13:13;;;;;;;31.75;29.95;;;;;;;25.36;40.03;101907.13;4965235;28;20051;-86
2022/05/20 11:16:12;;;;;;;30.00;28.30;;;;;;;23.28;54.79;101911.91;4975435;28;20065;-86
2022/05/20 11:19:14;;;;;;;30.38;28.58;;;;;;;22.99;60.18;101903.31;4975569;28;20042;-84
2022/05/20 11:22:22;;;;;;;31.65;29.65;;;;;;;23.86;48.96;101902.97;4934975;28;20054;-84
2022/05/20 11:25:18;;;;;;;35.10;33.00;;;;;;;24.25;52.43;101899.81;4922038;28;20126;-82
2022/05/20 11:28:09;;;;;;;31.35;29.23;;;;;;;24.84;45.08;101897.41;4977527;28;20398;-84
2022/05/20 11:30:50;;;;;;;32.13;30.15;;;;;;;24.72;42.58;101887.91;4978922;28;20047;-81
2022/05/20 11:33:58;;;;;;;30.50;28.52;;;;;;;25.44;43.21;101878.53;4992100;28;20089;-81
2022/05/20 11:36:49;;;;;;;31.10;29.30;;;;;;;24.77;44.53;101883.28;4981497;28;20117;-82
2022/05/20 11:39:49;;;;;;;32.33;30.52;;;;;;;26.13;39.21;101876.84;4971133;28;20051;-82
2022/05/20 11:42:41;;;;;;;34.13;32.28;;;;;;;25.15;38.74;101866.69;4985268;28;20133;-82
2022/05/20 11:45:28;;;;;;;35.80;33.80;;;;;;;25.68;40.36;101872.44;4980023;28;20459;-86
2022/05/20 11:48:15;;;;;;;35.70;33.22;;;;;;;24.50;45.50;101861.84;4976576;28;20302;-84
2022/05/20 11:50:58;;;;;;;33.03;31.00;;;;;;;23.97;50.09;101856.63;4972523;28;20105;-84
2022/05/20 11:53:34;;;;;;;35.70;33.00;;;;;;;25.43;45.04;101852.44;4970549;28;20479;-85
2022/05/20 11:56:06;;;;;;;35.00;33.03;;;;;;;26.91;38.25;101853.31;4975329;28;20057;-81
2022/05/20 11:58:40;;;;;;;33.00;30.92;;;;;;;25.79;40.59;101847.63;4974104;28;20082;-86
2022/05/20 12:01:10;;;;;;;33.13;31.17;;;;;;;25.64;38.87;101842.28;4971782;28;20053;-83
2022/05/20 12:06:36;;;;;;;29.88;27.83;;;;;;;25.83;42.06;101838.94;4950319;29;20055;-85
2022/05/20 12:09:32;;;;;;;30.40;28.60;;;;;;;26.04;41.23;101838.50;4953991;29;20047;-84
2022/05/20 12:12:17;;;;;;;28.92;27.13;;;;;;;25.21;37.58;101831.06;4954791;29;20062;-85
2022/05/20 12:15:36;;;;;;;28.33;26.33;;;;;;;25.21;37.33;101822.91;4960686;29;20127;-84